• Join FlightAware (Why Join?)
  • Login
  • US Flag 
05:41AM EDT


 

Airport Tracker/Info


-or-


 

Live Flight TrackerFlight Track Log ✈ N244A ✈ 06-Sep-2013 ✈ KLUK - KPWK

Flight Track Log - Related Links

Times and Time Zones

All times are in EDT time to prevent confusion due to time zone crossing. See the N244A flight status page for this flight to view local times or setup timezone preferences in your user account.

Time Position Orientation Groundspeed Altitude Reporting Facility
EDT Latitude Longitude Course Direction KTS MPH feet Rate Location/Type
05:37PM 42.1000 -87.8833 56° Northeast 172 198 1,200  Level Chicago TRACON
05:38PM 42.1333 -87.8167 56° Northeast 256 295 2,600 900 Climbing Chicago TRACON
05:39PM 42.1636 -87.7936 29° Northeast 258 297 2,700 180 Climbing Chicago Center
05:40PM 42.2344 -87.7919 North 256 295 2,900 60 Climbing Chicago Center
05:41PM 42.2594 -87.8736 292° West 265 305 2,900 420 Level Chicago Center
05:42PM 42.2578 -87.9653 269° West 254 292 3,800 480 Climbing Chicago Center
05:43PM 42.2333 -88.0511 249° West 255 293 3,900 240 Climbing Chicago Center
05:44PM 42.1792 -88.1347 229° Southwest 259 298 4,300 900 Climbing Chicago Center
05:45PM 42.1175 -88.1942 216° Southwest 268 308 5,800 2,400 Climbing Chicago Center
05:46PM 42.0556 -88.2647 220° Southwest 287 330 9,300 2,880 Climbing Chicago Center
05:47PM 42.0453 -88.3650 262° West 278 320 11,800 1,740 Climbing Chicago Center
05:48PM 42.0308 -88.4850 261° West 317 365 12,900 960 Climbing Chicago Center
05:49PM 42.0019 -88.6564 257° West 385 443 13,900 1,320 Climbing Chicago Center
05:50PM 41.9808 -88.8036 259° West 403 464 15,700 1,920 Climbing Chicago Center
05:51PM 41.9675 -88.9489 263° West 398 458 17,900 2,160 Climbing Chicago Center
05:52PM 41.9506 -89.0914 261° West 392 451 20,200 1,740 Climbing Chicago Center
05:53PM 41.9269 -89.2347 258° West 397 457 21,500 1,560 Climbing Chicago Center
05:54PM 41.8944 -89.4100 256° West 407 468 23,500 1,800 Climbing Chicago Center
05:55PM 41.8408 -89.5403 241° Southwest 402 463 25,300 1,200 Climbing Chicago Center
05:56PM 41.7883 -89.6653 241° Southwest 403 464 26,100 720 Climbing Chicago Center
05:57PM 41.7283 -89.8033 240° Southwest 425 489 26,900 1,380 Climbing Chicago Center
05:58PM 41.6606 -89.9692 241° Southwest 428 493 29,000 1,500 Climbing Chicago Center
05:59PM 41.6453 -90.1172 262° West 408 470 30,100 660 Climbing Chicago Center
06:00PM 41.6394 -90.2775 267° West 452 520 30,400 660 Climbing Chicago Center
06:01PM 41.6278 -90.4378 264° West 442 509 31,500 1,320 Climbing Chicago Center
06:02PM 41.6153 -90.5942 264° West 428 493 33,200 1,260 Climbing Chicago Center
06:04PM 41.6042 -90.7647 265° West 413 475 34,200 540 Climbing Chicago Center
06:05PM 41.5928 -90.9219 265° West 425 489 34,400 420 Climbing Chicago Center
06:06PM 41.5822 -91.0839 265° West 438 504 35,100 660 Climbing Chicago Center
06:06PM 41.5822 -91.0839 265° West 438 504 35,100 1,020 Level Chicago Center
06:07PM 41.5711 -91.2431 265° West 435 501 36,200 1,020 Climbing Chicago Center
06:07PM 41.5711 -91.2431 265° West 435 501 36,200 1,140 Level Chicago Center
06:08PM 41.5558 -91.4294 264° West 425 489 37,400 1,140 Climbing Chicago Center
06:08PM 41.5558 -91.4294 264° West 425 489 37,400 540 Level Chicago Center
06:09PM 41.5467 -91.5808 265° West 415 478 38,000 540 Climbing Chicago Center
06:09PM 41.5467 -91.5808 265° West 415 478 38,000  Level Chicago Center
06:10PM 41.5339 -91.7364 264° West 421 484 38,000  Level Chicago Center
06:10PM 41.5339 -91.7364 264° West 421 484 38,000  Level Chicago Center
06:11PM 41.5219 -91.8947 264° West 431 496 38,000  Level Chicago Center
06:11PM 41.5219 -91.8947 264° West 431 496 38,000  Level Chicago Center
06:12PM 41.5083 -92.0556 264° West 438 504 38,000  Level Chicago Center
06:12PM 41.5083 -92.0556 264° West 438 504 38,000  Level Chicago Center
06:13PM 41.4933 -92.2544 264° West 450 518 38,000  Level Chicago Center
06:13PM 41.4933 -92.2544 264° West 450 518 38,000  Level Chicago Center
06:14PM 41.4814 -92.4094 264° West 455 524 38,000  Level Chicago Center
06:14PM 41.4814 -92.4094 264° West 455 524 38,000  Level Chicago Center
06:15PM 41.4658 -92.5739 263° West 454 522 38,000  Level Chicago Center
06:15PM 41.4658 -92.5739 263° West 454 522 38,000  Level Chicago Center
06:16PM 41.4528 -92.7475 264° West 464 534 38,000  Level Minneapolis Center
06:16PM 41.4528 -92.7475 264° West 464 534 38,000  Level Minneapolis Center
06:17PM 41.4378 -92.9178 263° West 468 539 38,000  Level Minneapolis Center
06:17PM 41.4378 -92.9178 263° West 468 539 38,000  Level Minneapolis Center
06:18PM 41.4164 -93.1608 263° West 474 545 38,000  Level Minneapolis Center
06:18PM 41.4164 -93.1608 263° West 474 545 38,000  Level Minneapolis Center
06:19PM 41.4011 -93.3317 263° West 473 544 38,000  Level Minneapolis Center
06:19PM 41.4011 -93.3317 263° West 473 544 38,000  Level Minneapolis Center
06:20PM 41.3847 -93.5047 263° West 475 547 38,000  Level Minneapolis Center
06:20PM 41.3847 -93.5047 263° West 475 547 38,000  Level Minneapolis Center
06:21PM 41.3725 -93.6706 264° West 464 534 38,000  Level Minneapolis Center
06:21PM 41.3725 -93.6706 264° West 464 534 38,000  Level Minneapolis Center
06:22PM 41.3553 -93.8422 262° West 470 541 38,000  Level Minneapolis Center
06:22PM 41.3553 -93.8422 262° West 470 541 38,000 -120 Level Minneapolis Center
06:23PM 41.3367 -94.0428 263° West 464 534 37,900 -120 Descending Minneapolis Center
06:23PM 41.3367 -94.0428 263° West 464 534 37,900 60 Level Minneapolis Center
06:24PM 41.3189 -94.2256 263° West 462 532 38,000 60 Climbing Minneapolis Center
06:24PM 41.3189 -94.2256 263° West 462 532 38,000  Level Minneapolis Center
06:25PM 41.3008 -94.3928 262° West 459 528 38,000  Level Minneapolis Center
06:25PM 41.3008 -94.3928 262° West 459 528 38,000  Level Minneapolis Center
06:26PM 41.2853 -94.5594 263° West 457 526 38,000  Level Minneapolis Center
06:26PM 41.2853 -94.5594 263° West 457 526 38,000  Level Minneapolis Center
06:27PM 41.2678 -94.7267 262° West 456 525 38,000  Level Minneapolis Center
06:27PM 41.2678 -94.7267 262° West 456 525 38,000  Level Minneapolis Center
06:29PM 41.2500 -94.8950 262° West 458 527 38,000  Level Minneapolis Center
06:29PM 41.2500 -94.8950 262° West 458 527 38,000  Level Minneapolis Center
06:30PM 41.2281 -95.0983 262° West 462 532 38,000  Level Minneapolis Center
06:30PM 41.2281 -95.0983 262° West 462 532 38,000  Level Minneapolis Center
06:31PM 41.2053 -95.3019 262° West 463 533 38,000  Level Minneapolis Center
06:31PM 41.2053 -95.3019 262° West 463 533 38,000  Level Minneapolis Center
06:32PM 41.1864 -95.4728 262° West 464 534 38,000  Level Minneapolis Center
06:32PM 41.1864 -95.4728 262° West 464 534 38,000  Level Minneapolis Center
06:33PM 41.1675 -95.6286 261° West 466 536 38,000  Level Minneapolis Center
06:33PM 41.1675 -95.6286 261° West 466 536 38,000  Level Minneapolis Center
06:34PM 41.1508 -95.7964 263° West 462 532 38,000  Level Minneapolis Center
06:34PM 41.1508 -95.7964 263° West 462 532 38,000  Level Minneapolis Center
06:35PM 41.1281 -96.0014 262° West 467 537 38,000  Level Minneapolis Center
06:35PM 41.1281 -96.0014 262° West 467 537 38,000  Level Minneapolis Center
06:36PM 41.1069 -96.1600 260° West 468 539 38,000  Level Minneapolis Center
06:36PM 41.1069 -96.1600 260° West 468 539 38,000  Level Minneapolis Center
06:37PM 41.0883 -96.3314 262° West 467 537 38,000  Level Minneapolis Center
06:37PM 41.0883 -96.3314 262° West 467 537 38,000  Level Minneapolis Center
06:38PM 41.0686 -96.5017 261° West 466 536 38,000  Level Minneapolis Center
06:38PM 41.0686 -96.5017 261° West 466 536 38,000  Level Minneapolis Center
06:39PM 41.0422 -96.7064 260° West 468 539 38,000  Level Minneapolis Center
06:39PM 41.0422 -96.7064 260° West 468 539 38,000  Level Minneapolis Center
06:40PM 41.0186 -96.9097 261° West 466 536 38,000  Level Minneapolis Center
06:41PM 41.0189 -96.9068 261° West  Level FlightAware Approximate
06:41PM 40.9958 -97.0786 260° West 467 537 38,000  Level Minneapolis Center
06:42PM 40.9769 -97.2483 262° West 466 536 38,000  Level Minneapolis Center
06:43PM 40.9539 -97.4267 260° West 468 539 38,000  Level Minneapolis Center
06:44PM 40.9319 -97.5964 260° West 469 540 38,000  Level Minneapolis Center
06:45PM 40.9114 -97.7661 261° West 468 539 38,000  Level Minneapolis Center
06:46PM 40.8872 -97.9358 259° West 469 540 38,000  Level Minneapolis Center
06:47PM 40.8600 -98.1400 260° West 469 540 38,000  Level Minneapolis Center
06:48PM 40.8851 -97.9551 259° West  Level FlightAware Approximate
06:49PM 40.8638 -98.1042 260° West  Level FlightAware Approximate
06:49PM 40.8369 -98.3092 260° West 468 539 38,000  Level Minneapolis Center
06:50PM 40.8434 -98.2535 260° West  Level FlightAware Approximate
06:50PM 40.8119 -98.5003 260° West 467 537 38,000  Level Minneapolis Center
06:51PM 40.8229 -98.4026 260° West  Level FlightAware Approximate
06:51PM 40.7872 -98.6678 259° West 466 536 38,000  Level Minneapolis Center
06:52PM 40.8021 -98.5517 260° West  Level FlightAware Approximate
06:52PM 40.7589 -98.8697 260° West 467 537 38,000  Level Minneapolis Center
06:53PM 40.7811 -98.7007 259° West  Level FlightAware Approximate
06:53PM 40.7350 -99.0550 260° West 464 534 38,000  Level Minneapolis Center
06:54PM 40.7598 -98.8495 259° West  Level FlightAware Approximate
06:54PM 40.7111 -99.2225 259° West 463 533 38,000  Level Denver Center
06:55PM 40.7384 -98.9983 259° West  Level FlightAware Approximate
06:55PM 40.6858 -99.3897 259° West 464 534 38,000  Level Denver Center
06:56PM 40.7172 -99.1470 259° West  Level FlightAware Approximate
06:56PM 40.6619 -99.5561 259° West 462 532 38,000  Level Denver Center
06:57PM 40.6958 -99.2957 259° West  Level FlightAware Approximate
06:57PM 40.6333 -99.7547 259° West 459 528 38,000  Level Denver Center
06:58PM 40.6743 -99.4443 259° West  Level FlightAware Approximate
06:58PM 40.6086 -99.9186 259° West 458 527 38,000  Level Denver Center
06:59PM 40.6526 -99.5928 259° West  Level FlightAware Approximate
06:59PM 40.5853 -100.0764 259° West 459 528 38,000  Level Denver Center
07:00PM 40.6307 -99.7412 259° West  Level FlightAware Approximate
07:01PM 40.6086 -99.8895 259° West  Level FlightAware Approximate
07:02PM 40.5863 -100.0377 259° West  Level FlightAware Approximate
07:03PM 40.5639 -100.1859 259° West  Level FlightAware Approximate
07:04PM 40.5412 -100.3339 259° West  Level FlightAware Approximate
07:05PM 40.5184 -100.4818 259° West  Level FlightAware Approximate
07:07PM 40.4678 -100.8044 259° West  Level FlightAware Approximate
07:09PM 40.4306 -101.0737 261° West  Level FlightAware Approximate
07:10PM 40.4119 -101.2224 261° West  Level FlightAware Approximate
07:11PM 40.3932 -101.3710 261° West  Level FlightAware Approximate
07:12PM 40.3742 -101.5195 261° West  Level FlightAware Approximate
07:13PM 40.3550 -101.6680 260° West  Level FlightAware Approximate
07:14PM 40.3356 -101.8163 260° West  Level FlightAware Approximate
07:15PM 40.3161 -101.9646 260° West  Level FlightAware Approximate
07:16PM 40.2963 -102.1128 260° West  Level FlightAware Approximate
07:17PM 40.2764 -102.2609 260° West  Level FlightAware Approximate
07:18PM 40.2562 -102.4089 260° West  Level FlightAware Approximate
07:19PM 40.2359 -102.5568 260° West  Level FlightAware Approximate
07:20PM 40.2154 -102.7046 260° West  Level FlightAware Approximate
07:21PM 40.1947 -102.8524 260° West  Level FlightAware Approximate
07:22PM 40.1738 -103.0000 260° West  Level FlightAware Approximate
07:23PM 40.1527 -103.1476 259° West  Level FlightAware Approximate
07:24PM 40.1372 -103.2962 263° West  Level FlightAware Approximate
07:25PM 40.1222 -103.4450 263° West  Level FlightAware Approximate
07:26PM 40.1118 -103.5943 266° West  Level FlightAware Approximate
07:27PM 40.1039 -103.7439 266° West  Level FlightAware Approximate
07:28PM 40.0941 -103.8934 264° West  Level FlightAware Approximate
07:29PM 40.0826 -104.0425 264° West  Level FlightAware Approximate
07:30PM 40.0708 -104.1917 264° West  Level FlightAware Approximate
07:31PM 40.0589 -104.3408 264° West  Level FlightAware Approximate
07:32PM 40.0480 -104.4899 266° West  Level FlightAware Approximate
07:33PM 40.0401 -104.6394 266° West  Level FlightAware Approximate
07:34PM 40.0333 -104.7889 270° West  Level FlightAware Approximate
07:35PM 40.0253 -104.9383 265° West  Level FlightAware Approximate
07:36PM 40.0167 -105.0876 270° West  Level FlightAware Approximate
07:37PM 40.0167 -105.2374 270° West  Level FlightAware Approximate
07:38PM 40.0167 -105.3872 270° West  Level FlightAware Approximate
07:39PM 40.0143 -105.5369 267° West  Level FlightAware Approximate
07:40PM 40.0090 -105.6865 267° West  Level FlightAware Approximate
07:41PM 40.0036 -105.8361 267° West  Level FlightAware Approximate
07:42PM 40.0000 -105.9858 270° West  Level FlightAware Approximate
07:43PM 40.0000 -106.1355 270° West  Level FlightAware Approximate
07:44PM 40.0000 -106.2853 270° West  Level FlightAware Approximate
07:45PM 39.9990 -106.4344 217° Southwest  Level FlightAware Approximate
07:46PM 39.9162 -106.5373 227° Southwest  Level FlightAware Approximate
07:47PM 39.8354 -106.6433 224° Southwest  Level FlightAware Approximate
07:48PM 39.7526 -106.7467 224° Southwest  Level FlightAware Approximate
07:49PM 39.6711 -106.8516 225° Southwest  Level FlightAware Approximate
07:50PM 39.6333 -106.9000 225° Southwest  Level FlightAware Approximate
07:51PM 39.6648 -106.7567 225° Southwest  Level Estimated
07:52PM 39.6333 -106.9000 225° Southwest  Level FlightAware Approximate
07:53PM 39.6648 -106.7567 225° Southwest  Level Estimated
07:54PM 39.6333 -106.9000 225° Southwest  Level FlightAware Approximate
07:55PM 39.6648 -106.7567 225° Southwest  Level Estimated
07:56PM 39.6333 -106.9000 225° Southwest  Level FlightAware Approximate
07:57PM 39.6648 -106.7567 225° Southwest  Level Estimated
07:58PM 39.6333 -106.9000 225° Southwest  Level FlightAware Approximate
07:59PM 39.6648 -106.7567 225° Southwest  Level Estimated
08:00PM 39.6333 -106.9000 225° Southwest  Level FlightAware Approximate
08:01PM 39.6648 -106.7567 225° Southwest  Level Estimated
08:02PM 39.6333 -106.9000 225° Southwest  Level FlightAware Approximate